createdAt,value
2022-09-12T00:01:32.894Z,20.48
2022-09-12T00:04:02.022Z,20.37
2022-09-12T00:06:32.541Z,20.38
2022-09-12T00:09:02.212Z,20.38
2022-09-12T00:11:29.604Z,20.35
2022-09-12T00:13:59.090Z,20.10
2022-09-12T00:16:28.654Z,19.78
2022-09-12T00:18:55.612Z,19.62
2022-09-12T00:21:23.241Z,19.56
2022-09-12T00:23:51.488Z,19.59
2022-09-12T00:26:19.730Z,19.37
2022-09-12T00:28:48.147Z,19.22
2022-09-12T00:31:22.262Z,18.64
2022-09-12T00:33:49.236Z,18.71
2022-09-12T00:36:20.218Z,18.56
2022-09-12T00:38:48.933Z,18.67
2022-09-12T00:41:32.604Z,18.67
2022-09-12T00:44:10.395Z,18.60
2022-09-12T00:46:44.274Z,18.60
2022-09-12T00:49:17.310Z,18.56
2022-09-12T00:51:51.807Z,18.70
2022-09-12T00:54:25.517Z,18.92
2022-09-12T00:56:56.012Z,18.97
2022-09-12T00:59:44.973Z,19.15
2022-09-12T01:02:12.021Z,19.29
2022-09-12T01:04:41.421Z,19.21
2022-09-12T01:07:08.933Z,19.20
2022-09-12T01:09:38.024Z,19.21
2022-09-12T01:12:06.026Z,19.24
2022-09-12T01:14:33.112Z,19.25
2022-09-12T01:17:00.075Z,19.33
2022-09-12T01:20:04.617Z,19.33
2022-09-12T01:23:02.660Z,18.70
2022-09-12T01:25:52.112Z,18.33
2022-09-12T01:28:49.918Z,18.09
2022-09-12T01:31:39.505Z,18.16
2022-09-12T01:34:28.283Z,18.33
2022-09-12T01:37:01.018Z,18.41
2022-09-12T01:39:38.844Z,18.61
2022-09-12T01:42:15.342Z,18.61
2022-09-12T01:45:02.879Z,18.64
2022-09-12T01:47:42.674Z,18.69
2022-09-12T01:50:17.379Z,18.69
2022-09-12T01:52:51.360Z,18.67
2022-09-12T01:55:24.153Z,18.59
2022-09-12T01:57:58.365Z,18.62
2022-09-12T02:00:26.061Z,18.45
2022-09-12T02:03:04.578Z,18.50
2022-09-12T02:05:35.661Z,18.39
2022-09-12T02:08:20.660Z,18.14
2022-09-12T02:10:54.145Z,17.85
2022-09-12T02:13:43.480Z,17.56
2022-09-12T02:16:50.614Z,17.43
2022-09-12T02:19:30.044Z,17.57
2022-09-12T02:22:00.281Z,17.85
2022-09-12T02:24:33.388Z,17.75
2022-09-12T02:27:06.190Z,17.96
2022-09-12T02:29:33.110Z,18.22
2022-09-12T02:32:06.066Z,18.30
2022-09-12T02:34:59.760Z,18.54
2022-09-12T02:37:40.106Z,18.56
2022-09-12T02:40:08.816Z,18.48
2022-09-12T02:42:38.615Z,18.63
2022-09-12T02:45:06.471Z,18.79
2022-09-12T02:47:39.310Z,18.76
2022-09-12T02:50:08.163Z,18.72
2022-09-12T02:52:36.205Z,18.80
2022-09-12T02:55:06.029Z,18.68
2022-09-12T02:57:33.449Z,18.63
2022-09-12T03:00:01.976Z,18.57
2022-09-12T03:03:06.340Z,18.57
2022-09-12T03:05:38.008Z,18.51
2022-09-12T03:08:10.627Z,18.45
2022-09-12T03:10:42.789Z,18.22
2022-09-12T03:17:00.046Z,18.46
2022-09-12T03:19:42.015Z,18.51
2022-09-12T03:22:17.876Z,18.45
2022-09-12T03:25:23.419Z,18.38
2022-09-12T03:28:07.499Z,18.20
2022-09-12T03:30:42.653Z,18.39
2022-09-12T03:33:14.025Z,18.26
2022-09-12T03:35:41.673Z,18.30
2022-09-12T03:38:08.784Z,18.42
2022-09-12T03:40:36.775Z,18.09
2022-09-12T03:43:05.329Z,17.85
2022-09-12T03:45:32.439Z,17.62
2022-09-12T03:47:59.479Z,17.49
2022-09-12T03:50:26.686Z,17.51
2022-09-12T03:52:53.898Z,17.54
2022-09-12T03:55:20.759Z,17.71
2022-09-12T03:57:47.686Z,17.92
2022-09-12T04:00:19.500Z,18.10
2022-09-12T04:02:46.834Z,18.29
2022-09-12T04:05:14.473Z,18.31
2022-09-12T04:07:41.872Z,18.28
2022-09-12T04:10:09.756Z,18.50
2022-09-12T04:12:39.564Z,18.42
2022-09-12T04:15:07.787Z,18.45
2022-09-12T04:17:35.180Z,18.52
2022-09-12T04:20:02.417Z,18.66
2022-09-12T04:22:31.974Z,18.83
2022-09-12T04:24:58.839Z,18.82
2022-09-12T04:27:25.808Z,18.80
2022-09-12T04:29:54.844Z,18.98
2022-09-12T04:32:22.418Z,18.93
2022-09-12T04:34:52.422Z,19.04
2022-09-12T04:37:19.441Z,19.02
2022-09-12T04:39:49.203Z,19.31
2022-09-12T04:42:16.617Z,19.21
2022-09-12T04:44:45.097Z,19.52
2022-09-12T04:47:11.995Z,19.76
2022-09-12T04:49:38.907Z,19.76
2022-09-12T04:52:06.102Z,19.64
2022-09-12T04:54:33.665Z,19.56
2022-09-12T04:57:01.052Z,19.75
2022-09-12T04:59:28.024Z,19.69
2022-09-12T05:01:55.244Z,19.34
2022-09-12T05:04:22.206Z,19.66
2022-09-12T05:06:51.950Z,19.27
2022-09-12T05:09:19.016Z,19.44
2022-09-12T05:14:33.875Z,19.72
2022-09-12T05:17:01.805Z,19.89
2022-09-12T05:19:30.496Z,20.06
2022-09-12T05:21:58.173Z,20.28
2022-09-12T05:24:25.178Z,20.43
2022-09-12T05:26:52.392Z,20.81
2022-09-12T05:29:19.970Z,20.91
2022-09-12T05:31:52.333Z,20.99
2022-09-12T05:34:20.746Z,20.94
2022-09-12T05:36:47.650Z,21.09
2022-09-12T05:39:15.037Z,21.04
2022-09-12T05:41:42.271Z,21.01
2022-09-12T05:44:12.535Z,21.02
2022-09-12T05:46:45.580Z,20.95
2022-09-12T05:49:14.636Z,21.24
2022-09-12T05:51:45.125Z,21.16
2022-09-12T05:54:15.363Z,21.27
2022-09-12T05:56:44.242Z,21.27
2022-09-12T05:59:14.554Z,21.22
2022-09-12T06:01:42.274Z,20.96
2022-09-12T06:04:14.665Z,20.90
2022-09-12T06:06:46.933Z,20.88
2022-09-12T06:09:15.770Z,21.14
2022-09-12T06:11:43.923Z,20.99
2022-09-12T06:14:13.447Z,21.16
2022-09-12T06:16:40.891Z,21.08
2022-09-12T06:19:16.352Z,20.98
2022-09-12T06:21:44.215Z,20.89
2022-09-12T06:24:11.498Z,21.21
2022-09-12T06:26:38.752Z,21.04
2022-09-12T06:29:05.867Z,20.97
2022-09-12T06:31:35.898Z,21.11
2022-09-12T06:34:06.027Z,20.98
2022-09-12T06:36:37.654Z,20.82
2022-09-12T06:39:16.565Z,20.61
2022-09-12T06:41:45.696Z,20.89
2022-09-12T06:44:16.173Z,21.17
2022-09-12T06:46:44.325Z,21.29
2022-09-12T06:49:12.544Z,21.59
2022-09-12T06:51:41.885Z,21.68
2022-09-12T06:54:12.168Z,21.67
2022-09-12T06:56:39.199Z,21.60
2022-09-12T06:59:09.005Z,21.88
2022-09-12T07:01:36.472Z,22.01
2022-09-12T07:04:04.738Z,22.22
2022-09-12T07:06:38.015Z,22.05
2022-09-12T07:09:07.469Z,21.99
2022-09-12T07:11:37.179Z,21.80
2022-09-12T07:14:06.181Z,21.88
2022-09-12T07:16:36.118Z,21.82
2022-09-12T07:19:05.397Z,21.86
2022-09-12T07:21:32.760Z,21.69
2022-09-12T07:23:59.720Z,21.82
2022-09-12T07:26:29.221Z,21.63
2022-09-12T07:29:18.757Z,21.76
2022-09-12T07:31:45.664Z,21.99
2022-09-12T07:34:15.018Z,22.14
2022-09-12T07:36:42.038Z,21.74
2022-09-12T07:39:09.711Z,21.69
2022-09-12T07:41:39.718Z,21.74
2022-09-12T07:44:07.466Z,21.89
2022-09-12T07:46:35.541Z,21.77
2022-09-12T07:49:02.593Z,21.95
2022-09-12T07:51:30.777Z,22.06
2022-09-12T07:53:59.670Z,21.78
2022-09-12T07:56:30.659Z,22.06
2022-09-12T07:58:58.958Z,22.24
2022-09-12T08:01:27.256Z,22.03
2022-09-12T08:03:59.736Z,21.93
2022-09-12T08:06:32.254Z,22.05
2022-09-12T08:08:59.841Z,22.05
2022-09-12T08:11:28.353Z,22.15
2022-09-12T08:13:58.155Z,22.36
2022-09-12T08:16:28.663Z,22.51
2022-09-12T08:18:56.127Z,22.36
2022-09-12T08:21:42.702Z,22.25
2022-09-12T08:24:12.722Z,22.30
2022-09-12T08:26:39.624Z,22.28
2022-09-12T08:29:06.576Z,22.28
2022-09-12T08:31:37.739Z,22.46
2022-09-12T08:34:08.136Z,22.49
2022-09-12T08:36:37.014Z,22.35
2022-09-12T08:39:08.234Z,22.45
2022-09-12T08:41:43.192Z,22.25
2022-09-12T08:44:25.799Z,22.42
2022-09-12T08:47:04.696Z,22.65
2022-09-12T08:50:03.644Z,23.03
2022-09-12T08:52:50.546Z,23.14
2022-09-12T08:55:22.152Z,23.29
2022-09-12T08:57:49.047Z,23.06
2022-09-12T09:00:17.321Z,23.14
2022-09-12T09:02:51.140Z,23.35
2022-09-12T09:05:33.649Z,23.44
2022-09-12T09:08:22.816Z,23.33
2022-09-12T09:11:24.571Z,23.40
2022-09-12T09:14:20.623Z,23.08
2022-09-12T09:16:53.174Z,23.24
2022-09-12T09:19:37.958Z,23.10
2022-09-12T09:22:13.266Z,22.96
2022-09-12T09:24:48.338Z,22.82
2022-09-12T09:27:40.793Z,22.72
2022-09-12T09:30:19.302Z,22.80
2022-09-12T09:35:21.614Z,22.79
2022-09-12T09:38:16.909Z,23.27
2022-09-12T09:41:00.599Z,23.25
2022-09-12T09:43:29.601Z,23.27
2022-09-12T09:46:00.197Z,23.07
2022-09-12T09:48:34.251Z,23.27
2022-09-12T09:51:05.166Z,23.21
2022-09-12T09:53:52.180Z,23.34
2022-09-12T09:56:27.584Z,23.24
2022-09-12T09:58:54.554Z,23.05
2022-09-12T10:01:22.296Z,23.34
2022-09-12T10:03:55.206Z,23.66
2022-09-12T10:06:35.973Z,23.49
2022-09-12T10:09:15.131Z,23.39
2022-09-12T10:11:45.927Z,23.36
2022-09-12T10:14:45.217Z,22.99
2022-09-12T10:17:34.169Z,23.21
2022-09-12T10:20:21.380Z,23.48
2022-09-12T10:22:49.773Z,23.14
2022-09-12T10:25:19.250Z,23.37
2022-09-12T10:27:55.965Z,23.43
2022-09-12T10:30:28.418Z,23.53
2022-09-12T10:33:08.359Z,23.89
2022-09-12T10:35:48.950Z,23.74
2022-09-12T10:38:25.961Z,23.91
2022-09-12T10:41:14.404Z,24.12
2022-09-12T10:43:42.360Z,23.87
2022-09-12T10:46:18.431Z,23.82
2022-09-12T10:48:50.593Z,23.86
2022-09-12T10:51:26.310Z,23.59
2022-09-12T10:54:00.370Z,23.37
2022-09-12T10:56:52.069Z,23.67
2022-09-12T10:59:59.099Z,23.41
2022-09-12T11:03:01.446Z,23.37
2022-09-12T11:05:52.797Z,23.34
2022-09-12T11:08:53.542Z,23.38
2022-09-12T11:11:40.255Z,23.64
2022-09-12T11:14:29.156Z,23.78
2022-09-12T11:17:13.728Z,24.15
2022-09-12T11:20:04.562Z,24.11
2022-09-12T11:23:06.036Z,24.01
2022-09-12T11:26:05.386Z,23.93
2022-09-12T11:28:50.205Z,23.97
2022-09-12T11:31:39.250Z,24.22
2022-09-12T11:34:11.822Z,24.03
2022-09-12T11:36:47.796Z,23.92
2022-09-12T11:39:24.007Z,24.15
2022-09-12T11:42:00.306Z,24.02
2022-09-12T11:44:40.253Z,23.90
2022-09-12T11:47:14.545Z,24.16
2022-09-12T11:49:53.574Z,24.01
2022-09-12T11:52:23.889Z,23.39
2022-09-12T11:55:03.893Z,23.45
2022-09-12T11:57:39.347Z,23.72
2022-09-12T12:00:10.869Z,23.93
2022-09-12T12:03:04.841Z,24.24
2022-09-12T12:05:42.958Z,24.10
2022-09-12T12:08:12.246Z,23.85
2022-09-12T12:10:43.236Z,23.57
2022-09-12T12:13:22.228Z,23.33
2022-09-12T12:16:03.531Z,23.40
2022-09-12T12:18:33.104Z,23.40
2022-09-12T12:21:37.541Z,23.99
2022-09-12T12:24:04.969Z,24.06
2022-09-12T12:26:45.396Z,23.88
2022-09-12T12:29:12.728Z,23.84
2022-09-12T12:32:05.901Z,23.63
2022-09-12T12:37:42.673Z,23.82
2022-09-12T12:40:29.352Z,23.73
2022-09-12T12:42:56.151Z,23.84
2022-09-12T12:45:29.174Z,23.89
2022-09-12T12:48:10.333Z,24.14
2022-09-12T12:50:37.623Z,24.08
2022-09-12T12:53:28.579Z,24.00
2022-09-12T12:55:58.698Z,23.64
2022-09-12T12:58:46.064Z,23.60
2022-09-12T13:01:16.945Z,23.71
2022-09-12T13:03:53.219Z,23.77
2022-09-12T13:06:34.557Z,23.73
2022-09-12T13:09:27.058Z,23.58
2022-09-12T13:12:25.511Z,23.55
2022-09-12T13:15:03.950Z,23.56
2022-09-12T13:17:36.976Z,23.70
2022-09-12T13:20:28.401Z,23.70
2022-09-12T13:23:00.474Z,23.50
2022-09-12T13:25:31.978Z,23.68
2022-09-12T13:28:17.243Z,23.64
2022-09-12T13:31:07.627Z,23.54
2022-09-12T13:34:00.025Z,23.22
2022-09-12T13:40:30.862Z,23.32
2022-09-12T13:46:00.401Z,23.49
2022-09-12T13:48:30.504Z,23.45
2022-09-12T13:51:02.192Z,23.35
2022-09-12T14:10:35.063Z,23.30
2022-09-12T14:13:26.578Z,23.33
2022-09-12T14:15:58.098Z,23.03
2022-09-12T14:18:28.349Z,23.07
2022-09-12T14:20:57.528Z,23.05
2022-09-12T14:23:30.859Z,23.02
2022-09-12T14:26:06.686Z,23.04
2022-09-12T14:28:35.354Z,22.90
2022-09-12T14:31:06.807Z,22.88
2022-09-12T14:33:57.060Z,22.78
2022-09-12T14:36:30.470Z,22.92
2022-09-12T14:39:04.578Z,23.02
2022-09-12T14:41:40.892Z,23.16
2022-09-12T14:44:17.356Z,23.24
2022-09-12T14:46:44.905Z,23.18
2022-09-12T14:49:25.938Z,23.20
2022-09-12T14:52:01.690Z,23.15
2022-09-12T14:54:28.575Z,22.94
2022-09-12T14:57:05.036Z,22.75
2022-09-12T14:59:40.375Z,22.55
2022-09-12T15:02:20.721Z,22.61
2022-09-12T15:05:15.566Z,22.59
2022-09-12T15:07:53.881Z,22.55
2022-09-12T15:10:31.479Z,22.62
2022-09-12T15:13:19.917Z,22.67
2022-09-12T15:15:52.418Z,22.59
2022-09-12T15:18:20.666Z,22.66
2022-09-12T15:20:50.492Z,22.63
2022-09-12T15:23:38.280Z,22.62
2022-09-12T15:26:06.439Z,22.64
2022-09-12T15:28:37.730Z,22.78
2022-09-12T15:31:30.671Z,22.63
2022-09-12T15:34:00.211Z,22.63
2022-09-12T15:36:29.041Z,22.62
2022-09-12T15:38:56.905Z,22.65
2022-09-12T15:41:34.767Z,22.70
2022-09-12T15:44:04.634Z,22.76
2022-09-12T15:46:31.617Z,22.71
2022-09-12T15:48:58.537Z,22.63
2022-09-12T15:51:25.711Z,22.39
2022-09-12T15:53:52.801Z,22.45
2022-09-12T15:56:22.213Z,22.40
2022-09-12T15:59:05.207Z,22.30
2022-09-12T16:01:32.466Z,22.34
2022-09-12T16:03:59.430Z,22.29
2022-09-12T16:06:27.272Z,22.18
2022-09-12T16:08:54.168Z,22.27
2022-09-12T16:11:26.578Z,22.40
2022-09-12T16:13:54.304Z,22.41
2022-09-12T16:16:21.341Z,22.47
2022-09-12T16:18:48.728Z,22.44
2022-09-12T16:21:16.055Z,22.38
2022-09-12T16:23:44.594Z,22.24
2022-09-12T16:26:11.535Z,22.33
2022-09-12T16:28:43.789Z,22.42
2022-09-12T16:31:16.809Z,22.32
2022-09-12T16:33:43.689Z,22.30
2022-09-12T16:36:13.814Z,22.36
2022-09-12T16:38:42.219Z,22.28
2022-09-12T16:41:09.364Z,22.38
2022-09-12T16:43:37.852Z,22.30
2022-09-12T16:46:07.991Z,22.25
2022-09-12T16:48:35.519Z,22.25
2022-09-12T16:51:07.362Z,22.27
2022-09-12T16:53:37.108Z,22.17
2022-09-12T16:56:05.899Z,22.10
2022-09-12T16:58:41.976Z,22.14
2022-09-12T17:01:14.415Z,22.02
2022-09-12T17:03:42.384Z,22.02
2022-09-12T17:06:12.120Z,22.03
2022-09-12T17:08:40.996Z,21.86
2022-09-12T17:11:22.056Z,21.83
2022-09-12T17:14:04.445Z,21.75
2022-09-12T17:16:38.243Z,21.63
2022-09-12T17:19:06.606Z,21.49
2022-09-12T17:21:35.863Z,21.47
2022-09-12T17:24:03.618Z,21.39
2022-09-12T17:26:32.087Z,21.27
2022-09-12T17:28:58.961Z,21.34
2022-09-12T17:31:26.664Z,21.27
2022-09-12T17:34:01.035Z,21.16
2022-09-12T17:36:29.260Z,21.09
2022-09-12T17:38:56.139Z,21.16
2022-09-12T17:41:31.402Z,21.01
2022-09-12T17:47:34.059Z,21.00
2022-09-12T17:50:27.455Z,20.99
2022-09-12T17:52:50.630Z,20.93
2022-09-12T17:55:17.969Z,20.80
2022-09-12T17:57:45.384Z,20.84
2022-09-12T18:00:12.684Z,20.84
2022-09-12T18:02:40.096Z,20.88
2022-09-12T18:05:07.250Z,20.91
2022-09-12T18:07:35.685Z,20.95
2022-09-12T18:10:02.757Z,20.76
2022-09-12T18:12:30.449Z,20.83
2022-09-12T18:14:57.321Z,20.80
2022-09-12T18:17:24.437Z,20.84
2022-09-12T18:19:54.956Z,20.78
2022-09-12T18:22:21.959Z,20.70
2022-09-12T18:24:48.805Z,20.49
2022-09-12T18:27:15.677Z,20.61
2022-09-12T18:29:42.831Z,20.59
2022-09-12T18:32:09.702Z,20.50
2022-09-12T18:34:36.548Z,20.55
2022-09-12T18:37:05.364Z,20.52
2022-09-12T18:39:32.301Z,20.43
2022-09-12T18:41:59.223Z,20.46
2022-09-12T18:44:26.369Z,20.35
2022-09-12T18:46:53.315Z,20.32
2022-09-12T18:49:49.578Z,20.21
2022-09-12T18:52:18.998Z,20.17
2022-09-12T18:54:46.009Z,20.12
2022-09-12T18:57:12.860Z,20.12
2022-09-12T18:59:39.769Z,20.08
2022-09-12T19:02:07.229Z,19.98
2022-09-12T19:04:34.426Z,20.04
2022-09-12T19:07:04.051Z,19.97
2022-09-12T19:09:33.792Z,19.90
2022-09-12T19:12:00.798Z,19.79
2022-09-12T19:14:28.599Z,19.67
2022-09-12T19:17:04.013Z,19.74
2022-09-12T19:23:13.108Z,19.71
2022-09-12T19:25:42.585Z,19.33
2022-09-12T19:28:11.244Z,19.24
2022-09-12T19:30:47.031Z,19.57
2022-09-12T19:33:14.269Z,19.58
2022-09-12T19:35:41.388Z,19.46
2022-09-12T19:38:08.752Z,19.03
2022-09-12T19:40:40.501Z,19.31
2022-09-12T19:43:09.083Z,19.19
2022-09-12T19:45:37.806Z,19.59
2022-09-12T19:48:04.865Z,19.34
2022-09-12T19:50:34.622Z,19.26
2022-09-12T19:53:07.100Z,19.79
2022-09-12T19:55:38.602Z,19.23
2022-09-12T19:58:06.206Z,19.42
2022-09-12T20:00:34.712Z,19.63
2022-09-12T20:03:04.373Z,18.72
2022-09-12T20:05:39.536Z,19.60
2022-09-12T20:08:10.064Z,19.51
2022-09-12T20:10:38.581Z,19.07
2022-09-12T20:13:06.085Z,19.69
2022-09-12T20:15:50.483Z,19.16
2022-09-12T20:18:17.686Z,19.66
2022-09-12T20:20:44.764Z,19.39
2022-09-12T20:23:12.347Z,19.33
2022-09-12T20:25:39.356Z,19.59
2022-09-12T20:28:08.792Z,19.23
2022-09-12T20:30:35.888Z,19.16
2022-09-12T20:33:03.769Z,19.28
2022-09-12T20:35:32.335Z,19.24
2022-09-12T20:38:00.065Z,19.35
2022-09-12T20:40:27.094Z,19.37
2022-09-12T20:42:54.008Z,19.37
2022-09-12T20:45:20.855Z,19.30
2022-09-12T20:47:47.847Z,19.31
2022-09-12T20:50:15.264Z,19.36
2022-09-12T20:52:42.158Z,19.28
2022-09-12T20:55:09.902Z,19.35
2022-09-12T20:57:37.129Z,19.12
2022-09-12T21:00:06.684Z,19.27
2022-09-12T21:02:33.766Z,19.20
2022-09-12T21:05:00.671Z,19.24
2022-09-12T21:07:27.552Z,19.30
2022-09-12T21:09:54.609Z,19.19
2022-09-12T21:12:21.550Z,19.19
2022-09-12T21:14:48.654Z,19.10
2022-09-12T21:17:15.494Z,19.19
2022-09-12T21:19:42.583Z,19.15
2022-09-12T21:22:09.669Z,19.09
2022-09-12T21:24:37.814Z,19.11
2022-09-12T21:27:05.159Z,18.91
2022-09-12T21:29:32.139Z,19.16
2022-09-12T21:31:58.986Z,19.09
2022-09-12T21:34:25.915Z,19.27
2022-09-12T21:36:52.925Z,19.29
2022-09-12T21:39:21.823Z,19.25
2022-09-12T21:41:49.955Z,19.28
2022-09-12T21:44:16.965Z,19.35
2022-09-12T21:46:43.968Z,19.37
2022-09-12T21:49:10.867Z,19.31
2022-09-12T21:51:37.777Z,19.29
2022-09-12T21:54:04.717Z,19.32
2022-09-12T21:56:31.549Z,19.34
2022-09-12T21:58:58.766Z,19.25
2022-09-12T22:01:25.728Z,19.16
2022-09-12T22:03:53.214Z,18.99
2022-09-12T22:06:22.543Z,18.90
2022-09-12T22:08:51.934Z,18.86
2022-09-12T22:11:20.373Z,18.93
2022-09-12T22:13:47.320Z,19.01
2022-09-12T22:16:14.405Z,19.10
2022-09-12T22:18:41.670Z,19.10
2022-09-12T22:21:15.099Z,18.99
2022-09-12T22:24:01.105Z,18.95
2022-09-12T22:26:29.240Z,18.91
2022-09-12T22:28:56.252Z,19.02
2022-09-12T22:31:23.636Z,19.09
2022-09-12T22:33:51.503Z,19.06
2022-09-12T22:36:18.426Z,18.96
2022-09-12T22:38:45.954Z,18.83
2022-09-12T22:41:13.292Z,18.68
2022-09-12T22:43:40.312Z,18.88
2022-09-12T22:46:12.587Z,18.83
2022-09-12T22:48:40.657Z,18.89
2022-09-12T22:51:07.704Z,18.84
2022-09-12T22:53:35.612Z,18.92
2022-09-12T22:56:03.950Z,18.99
2022-09-12T22:58:31.844Z,18.86
2022-09-12T23:00:58.731Z,18.90
2022-09-12T23:03:26.932Z,18.88
2022-09-12T23:05:53.807Z,18.92
2022-09-12T23:08:20.770Z,18.87
2022-09-12T23:10:47.638Z,18.84
2022-09-12T23:13:15.036Z,18.85
2022-09-12T23:15:42.363Z,18.81
2022-09-12T23:18:09.229Z,18.82
2022-09-12T23:20:36.108Z,18.76
2022-09-12T23:23:03.266Z,18.81
2022-09-12T23:25:30.967Z,18.65
2022-09-12T23:27:57.871Z,18.60
2022-09-12T23:30:24.774Z,18.71
2022-09-12T23:32:51.629Z,18.70
2022-09-12T23:35:19.756Z,18.71
2022-09-12T23:37:47.634Z,18.83
2022-09-12T23:40:14.711Z,18.77
2022-09-12T23:42:41.673Z,18.68
2022-09-12T23:45:08.988Z,18.64
2022-09-12T23:47:35.879Z,18.57
2022-09-12T23:50:02.761Z,18.67
2022-09-12T23:52:29.877Z,18.68
2022-09-12T23:54:56.748Z,18.71
2022-09-12T23:57:23.694Z,18.65
2022-09-12T23:59:50.556Z,18.74
